Time;durP1;ratioP1;P1;durP2;ratioP2;P2;SDS_P1;SDS_P2;PMS_P1;PMS_P2;Temp;Humidity;BMP_temperature;BMP_pressure;BME280_temperature;BME280_humidity;BME280_pressure;Samples;Min_cycle;Max_cycle;Signal;HPM_P1;HPM_P2
2023/04/06 00:01:39;;;;;;;8.23;4.10;;;0.40;93.20;;;;;;5025804;28;20537;-43
2023/04/06 00:04:05;;;;;;;6.95;3.50;;;1.60;93.60;;;;;;5025633;28;20033;-42
2023/04/06 00:06:31;;;;;;;7.15;4.00;;;0.50;93.40;;;;;;5021613;28;20049;-42
2023/04/06 00:08:58;;;;;;;7.88;4.03;;;0.90;93.50;;;;;;5025886;28;20044;-42
2023/04/06 00:11:24;;;;;;;10.05;4.43;;;1.40;93.60;;;;;;5025546;28;20060;-42
2023/04/06 00:13:50;;;;;;;5.72;3.83;;;0.70;93.40;;;;;;5021919;28;20082;-44
2023/04/06 00:16:16;;;;;;;8.75;4.32;;;1.60;93.70;;;;;;5023366;28;20080;-42
2023/04/06 00:18:42;;;;;;;7.97;4.10;;;0.40;93.50;;;;;;5024639;28;20510;-42
2023/04/06 00:21:07;;;;;;;10.30;4.85;;;0.30;93.50;;;;;;5023106;28;20045;-42
2023/04/06 00:23:33;;;;;;;8.55;4.05;;;1.50;94.10;;;;;;5019600;28;20396;-42
2023/04/06 00:25:59;;;;;;;7.00;3.95;;;0.40;93.70;;;;;;5024320;28;20148;-42
2023/04/06 00:28:29;;;;;;;9.85;3.90;;;0.30;93.80;;;;;;5023680;28;20045;-41
2023/04/06 00:30:55;;;;;;;7.72;3.72;;;1.40;93.90;;;;;;5025111;28;20754;-42
2023/04/06 00:33:22;;;;;;;6.68;4.20;;;0.20;94.10;;;;;;5024183;28;20053;-42
2023/04/06 00:35:48;;;;;;;8.73;4.15;;;0.30;94.20;;;;;;5021617;28;20828;-43
2023/04/06 00:38:15;;;;;;;9.98;4.68;;;0.30;94.30;;;;;;5025411;28;20037;-42
2023/04/06 00:40:41;;;;;;;7.45;3.95;;;-2.00;93.70;;;;;;5024268;28;20112;-43
2023/04/06 00:43:08;;;;;;;6.78;3.65;;;0.20;94.40;;;;;;5020626;28;20559;-44
2023/04/06 00:45:34;;;;;;;5.45;3.40;;;0.20;94.50;;;;;;5025392;28;20059;-43
2023/04/06 00:48:01;;;;;;;8.75;4.15;;;0.80;94.70;;;;;;5020878;28;20046;-43
2023/04/06 00:50:28;;;;;;;9.75;4.18;;;0.80;94.70;;;;;;5024194;28;20206;-41
2023/04/06 00:52:54;;;;;;;9.35;4.05;;;0.20;94.60;;;;;;5023410;28;20037;-42
2023/04/06 00:55:20;;;;;;;7.82;4.30;;;0.20;94.80;;;;;;5024705;28;20157;-43
2023/04/06 00:57:46;;;;;;;6.30;4.55;;;1.30;95.40;;;;;;5025395;28;20727;-42
2023/04/06 01:00:13;;;;;;;10.88;4.25;;;0.20;95.30;;;;;;5025268;28;20056;-42
2023/04/06 01:02:39;;;;;;;6.88;3.75;;;-0.10;95.50;;;;;;5023413;28;20100;-42
2023/04/06 01:05:05;;;;;;;10.18;4.20;;;0.10;97.30;;;;;;5024992;28;20163;-42
2023/04/06 01:07:31;;;;;;;9.15;4.45;;;-0.10;98.60;;;;;;5024918;28;20041;-42
2023/04/06 01:09:56;;;;;;;7.28;3.80;;;0.20;99.70;;;;;;5024838;28;20052;-42
2023/04/06 01:12:22;;;;;;;7.53;4.55;;;0.20;99.90;;;;;;5024099;28;20034;-42
2023/04/06 01:14:48;;;;;;;6.60;4.43;;;0.00;99.90;;;;;;5023462;28;20095;-43
2023/04/06 01:17:14;;;;;;;8.32;4.18;;;0.30;99.90;;;;;;5025211;28;20075;-42
2023/04/06 01:19:40;;;;;;;8.80;4.53;;;-0.10;99.90;;;;;;5025225;28;20080;-42
2023/04/06 01:22:06;;;;;;;7.78;4.40;;;-0.10;99.90;;;;;;5024179;28;20486;-43
2023/04/06 01:24:33;;;;;;;9.20;4.72;;;-0.10;99.90;;;;;;5024031;28;20828;-42
2023/04/06 01:26:58;;;;;;;8.57;4.18;;;-0.20;99.90;;;;;;5024809;28;20136;-43
2023/04/06 01:29:25;;;;;;;11.32;5.18;;;;;;;;;;5018706;28;20034;-42
2023/04/06 01:31:51;;;;;;;9.27;4.63;;;-0.90;95.30;;;;;;5022770;28;20041;-41
2023/04/06 01:34:16;;;;;;;6.88;5.15;;;-0.80;95.70;;;;;;5024755;28;20076;-42
2023/04/06 01:36:42;;;;;;;9.18;5.45;;;-0.90;95.90;;;;;;5024508;28;20038;-41
2023/04/06 01:39:08;;;;;;;8.57;4.65;;;-0.90;96.00;;;;;;5024663;28;20061;-43
2023/04/06 01:41:34;;;;;;;11.80;4.72;;;-1.00;99.90;;;;;;5021864;28;20030;-43
2023/04/06 01:44:00;;;;;;;9.70;5.07;;;-0.10;96.80;;;;;;5025216;28;20042;-42
2023/04/06 01:46:26;;;;;;;8.90;4.30;;;-0.80;96.80;;;;;;5025128;28;20169;-43
2023/04/06 01:48:51;;;;;;;12.07;5.53;;;-0.90;96.80;;;;;;5024813;28;20033;-42
2023/04/06 01:51:17;;;;;;;10.50;4.97;;;-0.90;96.90;;;;;;5023703;28;20115;-42
2023/04/06 01:53:43;;;;;;;10.18;5.13;;;-0.80;97.00;;;;;;5020676;28;20049;-41
2023/04/06 01:56:09;;;;;;;11.55;4.50;;;1.30;97.60;;;;;;5020058;28;20658;-42
2023/04/06 01:58:35;;;;;;;10.68;4.85;;;-0.90;97.00;;;;;;5020495;28;20068;-42
2023/04/06 02:01:01;;;;;;;11.88;5.40;;;0.00;97.20;;;;;;5020658;28;20459;-42
2023/04/06 02:03:27;;;;;;;8.50;5.55;;;-0.80;96.90;;;;;;5025266;28;20034;-41
2023/04/06 02:05:52;;;;;;;8.30;5.05;;;0.40;97.20;;;;;;5028521;28;20044;-42
2023/04/06 02:08:18;;;;;;;12.23;4.88;;;-0.90;97.30;;;;;;5027913;28;20120;-41
2023/04/06 02:10:44;;;;;;;6.97;4.15;;;-0.90;97.10;;;;;;5027790;28;20045;-42
2023/04/06 02:13:09;;;;;;;9.15;4.90;;;-0.70;97.20;;;;;;5025271;28;20033;-41
2023/04/06 02:15:35;;;;;;;10.02;5.03;;;0.70;97.60;;;;;;5028268;28;20460;-42
2023/04/06 02:18:01;;;;;;;10.65;4.93;;;-0.70;97.20;;;;;;5026237;28;20099;-41
2023/04/06 02:20:27;;;;;;;7.22;4.95;;;-0.80;97.20;;;;;;5028452;28;20471;-41
2023/04/06 02:22:52;;;;;;;11.35;5.00;;;0.70;97.70;;;;;;5026623;28;20059;-41
2023/04/06 02:25:18;;;;;;;9.63;5.20;;;-0.70;97.20;;;;;;5030172;28;20040;-41
2023/04/06 02:27:44;;;;;;;8.07;5.13;;;-0.80;97.20;;;;;;5027814;28;20033;-44
2023/04/06 02:30:10;;;;;;;7.82;5.07;;;-0.70;97.20;;;;;;5028367;28;20042;-42
2023/04/06 02:32:36;;;;;;;10.40;4.80;;;-0.60;97.30;;;;;;5028297;28;20037;-42
2023/04/06 02:35:01;;;;;;;6.38;4.68;;;-0.70;97.20;;;;;;5021185;28;20049;-43
2023/04/06 02:37:27;;;;;;;8.30;4.45;;;-0.80;97.10;;;;;;5027678;28;20075;-42
2023/04/06 02:39:53;;;;;;;6.45;4.65;;;-0.70;97.10;;;;;;5028031;28;20033;-41
2023/04/06 02:42:18;;;;;;;8.43;4.82;;;-0.60;97.10;;;;;;5028279;28;20041;-41
2023/04/06 02:44:44;;;;;;;10.27;4.95;;;-0.50;97.10;;;;;;5027767;28;20527;-41
2023/04/06 02:47:10;;;;;;;8.25;4.43;;;-0.60;97.10;;;;;;5027693;28;20049;-43
2023/04/06 02:49:36;;;;;;;7.22;4.80;;;-0.60;97.10;;;;;;5027960;28;20049;-43
2023/04/06 02:52:03;;;;;;;6.07;4.22;;;-0.70;97.10;;;;;;5025945;28;20085;-42
2023/04/06 02:54:28;;;;;;;9.35;4.80;;;-0.70;97.00;;;;;;5025894;28;20052;-42
2023/04/06 02:56:54;;;;;;;8.18;4.78;;;-0.80;97.10;;;;;;5027552;28;20053;-42
2023/04/06 02:59:20;;;;;;;6.95;4.22;;;-0.80;97.10;;;;;;5027470;28;20041;-41
2023/04/06 03:01:46;;;;;;;10.65;5.43;;;0.40;97.40;;;;;;5026897;28;20057;-42
2023/04/06 03:04:11;;;;;;;8.57;4.93;;;-0.80;97.10;;;;;;5027136;28;20643;-42
2023/04/06 03:06:37;;;;;;;6.07;4.50;;;-0.90;97.20;;;;;;5024598;28;20049;-41
2023/04/06 03:09:03;;;;;;;10.20;4.55;;;-1.00;97.20;;;;;;5026981;28;20052;-41
2023/04/06 03:11:29;;;;;;;7.68;4.80;;;-1.10;97.30;;;;;;5025831;28;20046;-41
2023/04/06 03:13:54;;;;;;;9.52;5.28;;;-0.50;97.50;;;;;;5026421;28;20081;-41
2023/04/06 03:16:20;;;;;;;7.45;5.03;;;-0.10;97.80;;;;;;5026761;28;20042;-41
2023/04/06 03:18:46;;;;;;;8.73;5.25;;;-1.00;97.60;;;;;;5026420;28;20125;-41
2023/04/06 03:21:15;;;;;;;8.35;4.82;;;-1.10;97.80;;;;;;5023582;28;20045;-41
2023/04/06 03:23:41;;;;;;;12.00;5.55;;;-1.00;97.90;;;;;;5024784;28;20132;-42
2023/04/06 03:26:07;;;;;;;8.82;5.35;;;-1.10;97.90;;;;;;5025579;28;20045;-41
2023/04/06 03:28:33;;;;;;;10.13;5.28;;;-1.00;98.10;;;;;;5024519;28;20092;-41
2023/04/06 03:30:59;;;;;;;7.70;4.85;;;-1.00;97.80;;;;;;5025391;28;20045;-41
2023/04/06 03:33:27;;;;;;;9.02;5.10;;;-0.90;97.80;;;;;;5023348;28;20527;-42
2023/04/06 03:35:53;;;;;;;8.80;5.20;;;-0.20;97.90;;;;;;5026273;28;20061;-41
2023/04/06 03:38:19;;;;;;;9.23;5.40;;;-0.90;97.90;;;;;;5026717;28;20562;-42
2023/04/06 03:40:45;;;;;;;8.02;5.38;;;-0.90;97.60;;;;;;5024902;28;20042;-42
2023/04/06 03:43:11;;;;;;;10.48;6.07;;;-0.80;97.70;;;;;;5022648;28;20033;-41
2023/04/06 03:45:36;;;;;;;9.20;5.28;;;-0.90;97.80;;;;;;5026182;28;20049;-41
2023/04/06 03:48:02;;;;;;;9.00;5.22;;;-0.80;97.90;;;;;;5024317;28;20049;-42
2023/04/06 03:50:28;;;;;;;11.52;5.32;;;-0.80;97.90;;;;;;5026263;28;20041;-42
2023/04/06 03:52:53;;;;;;;11.38;5.53;;;-0.90;97.70;;;;;;5022082;28;20045;-42
2023/04/06 03:55:19;;;;;;;10.07;5.32;;;-0.90;97.70;;;;;;5022633;28;20665;-43
2023/04/06 03:57:45;;;;;;;10.18;5.90;;;-0.90;97.60;;;;;;5026350;28;20540;-41
2023/04/06 04:00:12;;;;;;;7.65;5.68;;;-0.90;97.50;;;;;;5023129;28;20415;-42
2023/04/06 04:02:37;;;;;;;8.98;5.65;;;-0.70;99.90;;;;;;5023669;28;20041;-42
2023/04/06 04:05:03;;;;;;;10.15;5.85;;;-1.00;97.70;;;;;;5026215;28;20405;-41
2023/04/06 04:07:29;;;;;;;6.95;5.13;;;-0.90;97.70;;;;;;5026757;28;20438;-43
2023/04/06 04:09:55;;;;;;;8.77;5.40;;;-1.00;97.80;;;;;;5026698;28;20045;-42
2023/04/06 04:12:20;;;;;;;7.57;5.05;;;-1.20;97.50;;;;;;5025629;28;20056;-41
2023/04/06 04:14:46;;;;;;;9.32;5.97;;;-1.40;97.80;;;;;;5019387;28;20108;-41
2023/04/06 04:17:12;;;;;;;9.00;6.18;;;-1.60;99.90;;;;;;5025949;28;20038;-41
2023/04/06 04:19:38;;;;;;;10.80;6.10;;;-1.60;98.10;;;;;;5026432;28;20033;-41
2023/04/06 04:22:04;;;;;;;11.38;6.63;;;0.50;99.00;;;;;;5024228;28;20045;-41
2023/04/06 04:24:30;;;;;;;10.60;6.50;;;-1.50;99.00;;;;;;5024560;28;20125;-41
2023/04/06 04:26:56;;;;;;;11.88;6.72;;;-1.60;99.00;;;;;;5025817;28;20120;-41
2023/04/06 04:29:22;;;;;;;9.38;6.35;;;-1.50;99.10;;;;;;5021275;28;20034;-41
2023/04/06 04:31:49;;;;;;;10.10;6.15;;;-1.40;99.20;;;;;;5025913;28;20041;-42
2023/04/06 04:34:15;;;;;;;9.18;5.80;;;-1.30;99.20;;;;;;5025232;28;20064;-41
2023/04/06 04:36:44;;;;;;;10.98;6.32;;;-1.40;99.10;;;;;;5025245;28;20154;-42
2023/04/06 04:39:10;;;;;;;10.68;6.80;;;-1.30;99.00;;;;;;5025436;28;20030;-42
2023/04/06 04:41:36;;;;;;;10.75;6.13;;;-1.30;99.00;;;;;;5025755;28;20464;-41
2023/04/06 04:44:02;;;;;;;9.15;6.53;;;-1.20;98.80;;;;;;5024231;28;20448;-41
2023/04/06 04:46:27;;;;;;;15.07;5.95;;;-1.10;98.90;;;;;;5025855;28;20056;-43
2023/04/06 04:48:53;;;;;;;8.35;6.07;;;-1.10;98.90;;;;;;5025437;28;20064;-41
2023/04/06 04:51:19;;;;;;;11.00;6.85;;;-1.00;98.90;;;;;;5025255;28;20037;-41
2023/04/06 04:53:45;;;;;;;8.60;5.57;;;-1.00;98.80;;;;;;5023066;28;20081;-41
2023/04/06 04:56:11;;;;;;;10.32;6.93;;;-0.90;98.70;;;;;;5024478;28;20183;-41
2023/04/06 04:58:37;;;;;;;11.20;6.75;;;-1.00;98.50;;;;;;5020518;28;20091;-42
2023/04/06 05:01:03;;;;;;;11.27;6.32;;;-0.90;98.60;;;;;;5025116;28;20111;-41
2023/04/06 05:03:29;;;;;;;13.25;7.78;;;-0.80;98.50;;;;;;5024747;28;20060;-41
2023/04/06 05:05:55;;;;;;;8.85;6.63;;;-0.60;99.90;;;;;;5025320;28;20117;-41
2023/04/06 05:08:20;;;;;;;9.98;6.38;;;-0.90;98.40;;;;;;5024148;28;20120;-41
2023/04/06 05:10:47;;;;;;;10.63;6.82;;;-0.90;98.40;;;;;;5023444;28;20046;-41
2023/04/06 05:13:14;;;;;;;10.10;7.15;;;;;;;;;;5023331;28;20554;-43
2023/04/06 05:15:40;;;;;;;12.40;7.60;;;-0.60;98.30;;;;;;5023662;28;20050;-41
2023/04/06 05:18:07;;;;;;;10.20;6.68;;;0.00;98.70;;;;;;5023977;28;20107;-41
2023/04/06 05:20:33;;;;;;;9.85;6.30;;;0.50;98.60;;;;;;5024460;28;20088;-41
2023/04/06 05:22:59;;;;;;;8.60;6.32;;;-0.20;98.20;;;;;;5023078;28;20049;-41
2023/04/06 05:25:25;;;;;;;9.98;6.88;;;0.00;98.00;;;;;;5022266;28;20391;-41
2023/04/06 05:27:50;;;;;;;9.25;6.55;;;1.20;99.90;;;;;;5018379;28;20092;-41
2023/04/06 05:30:16;;;;;;;10.30;6.72;;;1.00;97.10;;;;;;5023063;28;20029;-41
2023/04/06 05:32:44;;;;;;;10.70;6.25;;;1.70;96.50;;;;;;5024158;28;20048;-43
2023/04/06 05:35:10;;;;;;;12.63;6.85;;;2.10;95.70;;;;;;5025263;28;20485;-42
2023/04/06 05:37:36;;;;;;;10.18;6.60;;;2.20;95.30;;;;;;5028373;28;20049;-43
2023/04/06 05:40:02;;;;;;;11.73;6.20;;;2.40;95.10;;;;;;5026114;28;20545;-42
2023/04/06 05:42:27;;;;;;;7.72;5.78;;;2.60;94.70;;;;;;5027382;28;20052;-41
2023/04/06 05:44:53;;;;;;;7.50;5.57;;;3.00;94.30;;;;;;5028834;28;20380;-42
2023/04/06 05:47:22;;;;;;;11.35;5.80;;;3.90;93.70;;;;;;5028292;28;20467;-42
2023/04/06 05:49:47;;;;;;;10.82;6.43;;;4.40;92.90;;;;;;5028876;28;20052;-42
2023/04/06 05:52:13;;;;;;;8.85;5.97;;;4.30;92.10;;;;;;5027884;28;20415;-41
2023/04/06 05:54:39;;;;;;;9.05;5.95;;;4.80;91.80;;;;;;5029989;28;20129;-43
2023/04/06 05:57:05;;;;;;;10.13;5.40;;;5.50;90.80;;;;;;5034218;28;20473;-43
2023/04/06 05:59:31;;;;;;;8.05;5.80;;;5.10;90.40;;;;;;5028409;28;20036;-42
2023/04/06 06:01:57;;;;;;;7.70;5.25;;;5.50;90.50;;;;;;5028436;28;20353;-43
2023/04/06 06:04:22;;;;;;;9.98;5.57;;;6.20;89.30;;;;;;5028099;28;20053;-43
2023/04/06 06:06:48;;;;;;;10.40;5.78;;;6.70;88.60;;;;;;5026159;28;20041;-42
2023/04/06 06:09:14;;;;;;;10.30;5.32;;;6.10;85.70;;;;;;5028996;28;20048;-42
2023/04/06 06:11:40;;;;;;;9.38;5.60;;;8.10;83.90;;;;;;5025218;28;20057;-43
2023/04/06 06:14:06;;;;;;;7.63;5.25;;;8.60;81.70;;;;;;5026315;28;20045;-42
2023/04/06 06:16:32;;;;;;;9.13;4.85;;;9.20;80.30;;;;;;5028017;28;20087;-42
2023/04/06 06:18:58;;;;;;;7.60;4.90;;;9.80;78.80;;;;;;5026308;28;20045;-44
2023/04/06 06:21:23;;;;;;;11.50;5.78;;;10.40;76.80;;;;;;5024557;28;20034;-42
2023/04/06 06:23:50;;;;;;;5.90;5.22;;;10.00;75.70;;;;;;5026148;28;20104;-42
2023/04/06 06:26:15;;;;;;;8.05;4.97;;;10.10;75.70;;;;;;5025733;28;20051;-42
2023/04/06 06:28:41;;;;;;;8.27;5.13;;;10.80;74.50;;;;;;5027286;28;20041;-43
2023/04/06 06:31:07;;;;;;;9.07;5.13;;;11.20;72.50;;;;;;5027919;28;20806;-43
2023/04/06 06:33:33;;;;;;;9.85;4.90;;;11.60;71.30;;;;;;5027778;28;20029;-43
2023/04/06 06:35:58;;;;;;;9.00;5.20;;;12.00;70.00;;;;;;5021536;28;20061;-43
2023/04/06 06:38:24;;;;;;;7.85;5.47;;;11.80;68.40;;;;;;5027730;28;20068;-43
2023/04/06 06:40:50;;;;;;;8.43;5.53;;;11.80;68.70;;;;;;5021977;28;20095;-42
2023/04/06 06:43:16;;;;;;;10.20;5.20;;;11.80;67.90;;;;;;5025519;28;20541;-42
2023/04/06 06:45:42;;;;;;;8.10;5.18;;;11.80;68.50;;;;;;5026211;28;20471;-43
2023/04/06 06:48:08;;;;;;;8.90;5.28;;;11.00;68.70;;;;;;5026955;28;20091;-42
2023/04/06 06:50:33;;;;;;;7.50;5.13;;;10.30;69.00;;;;;;5027527;28;20037;-43
2023/04/06 06:52:59;;;;;;;7.15;5.25;;;9.70;70.20;;;;;;5026394;28;20057;-43
2023/04/06 06:55:26;;;;;;;8.93;5.68;;;9.70;70.30;;;;;;5027375;28;20049;-44
2023/04/06 06:57:52;;;;;;;12.93;5.90;;;9.10;71.10;;;;;;5027466;28;20487;-43
2023/04/06 07:00:20;;;;;;;7.95;5.40;;;8.50;72.50;;;;;;5017732;28;20041;-43
2023/04/06 07:02:47;;;;;;;8.63;5.18;;;8.40;72.90;;;;;;5016023;28;20081;-42
2023/04/06 07:05:13;;;;;;;8.18;6.75;;;8.10;73.70;;;;;;5023065;28;20094;-43
2023/04/06 07:07:38;;;;;;;12.50;6.00;;;7.90;74.30;;;;;;5026408;28;20045;-43
2023/04/06 07:10:05;;;;;;;9.82;6.18;;;7.60;74.80;;;;;;5026182;28;20036;-44
2023/04/06 07:12:30;;;;;;;9.35;6.43;;;7.50;75.50;;;;;;5025557;28;20969;-43
2023/04/06 07:14:56;;;;;;;9.27;6.60;;;7.40;75.90;;;;;;5023518;28;20080;-42
2023/04/06 07:17:22;;;;;;;11.20;6.97;;;7.40;84.10;;;;;;5023327;28;20038;-41
2023/04/06 07:19:47;;;;;;;9.25;5.97;;;7.30;77.00;;;;;;5025682;28;20037;-44
2023/04/06 07:22:13;;;;;;;8.95;6.10;;;7.50;77.10;;;;;;5024377;28;20088;-43
2023/04/06 07:24:39;;;;;;;7.32;6.45;;;7.50;77.00;;;;;;5023595;28;20542;-43
2023/04/06 07:27:05;;;;;;;8.20;5.75;;;7.50;77.40;;;;;;5025594;28;20037;-44
2023/04/06 07:29:30;;;;;;;8.88;6.22;;;7.50;77.40;;;;;;5019997;28;20123;-42
2023/04/06 07:31:56;;;;;;;9.57;6.53;;;7.40;77.70;;;;;;5026147;28;20060;-44
2023/04/06 07:34:22;;;;;;;11.25;6.28;;;7.40;78.20;;;;;;5024688;28;20060;-42
2023/04/06 07:36:48;;;;;;;9.57;7.45;;;7.50;77.90;;;;;;5026992;28;20464;-44
2023/04/06 07:39:14;;;;;;;9.98;6.65;;;7.40;78.00;;;;;;5023808;28;20030;-43
2023/04/06 07:41:40;;;;;;;10.15;6.93;;;7.40;78.60;;;;;;5022273;28;20120;-42
2023/04/06 07:44:06;;;;;;;10.20;6.53;;;7.30;78.50;;;;;;5020424;28;20575;-45
2023/04/06 07:46:31;;;;;;;10.73;7.00;;;7.30;78.80;;;;;;5020602;28;20056;-43
2023/04/06 07:48:59;;;;;;;10.45;6.32;;;6.70;78.40;;;;;;5023030;28;20073;-43
2023/04/06 07:51:26;;;;;;;11.30;6.78;;;7.40;78.70;;;;;;5018714;28;20089;-42
2023/04/06 07:53:51;;;;;;;11.75;7.28;;;7.60;78.70;;;;;;5019574;28;20128;-44
2023/04/06 07:56:17;;;;;;;8.55;6.38;;;8.10;78.80;;;;;;5020914;28;20109;-44
2023/04/06 07:58:43;;;;;;;9.13;6.03;;;8.50;78.30;;;;;;5023669;28;20379;-45
2023/04/06 08:01:09;;;;;;;10.15;6.75;;;8.40;77.00;;;;;;5021954;28;20041;-43
2023/04/06 08:03:35;;;;;;;9.10;6.80;;;8.50;77.00;;;;;;5022304;28;20480;-43
2023/04/06 08:06:02;;;;;;;11.27;7.35;;;8.70;77.10;;;;;;5020588;28;20025;-44
2023/04/06 08:08:28;;;;;;;7.68;6.22;;;8.80;77.20;;;;;;5022004;28;20103;-44
2023/04/06 08:10:54;;;;;;;10.23;6.95;;;9.30;77.10;;;;;;5002444;28;20179;-44
2023/04/06 08:13:20;;;;;;;7.95;6.35;;;9.40;76.40;;;;;;4987461;28;21060;-43
2023/04/06 08:15:46;;;;;;;9.50;6.97;;;9.60;76.30;;;;;;4993824;28;20091;-43
2023/04/06 08:18:12;;;;;;;8.70;6.40;;;10.30;75.70;;;;;;4995712;28;20080;-43
2023/04/06 08:20:38;;;;;;;9.18;6.72;;;10.70;74.50;;;;;;5002835;28;20037;-47
2023/04/06 08:23:03;;;;;;;9.10;6.95;;;11.90;72.00;;;;;;5004652;28;20040;-48
2023/04/06 08:25:29;;;;;;;12.50;7.30;;;12.40;73.30;;;;;;5000009;28;20049;-43
2023/04/06 08:27:55;;;;;;;8.10;6.78;;;13.70;71.40;;;;;;5001357;28;20088;-49
2023/04/06 08:30:21;;;;;;;8.77;6.88;;;15.20;69.80;;;;;;5004597;28;20119;-45
2023/04/06 08:32:47;;;;;;;11.52;6.80;;;16.60;66.50;;;;;;5004056;28;21231;-43
2023/04/06 08:35:13;;;;;;;10.07;6.85;;;17.70;64.10;;;;;;5004803;28;20057;-44
2023/04/06 08:37:39;;;;;;;7.07;6.38;;;18.90;73.50;;;;;;5001944;28;20041;-47
2023/04/06 08:40:05;;;;;;;8.30;6.57;;;18.80;59.40;;;;;;4988037;28;21016;-51
2023/04/06 08:42:40;;;;;;;13.30;7.13;;;19.10;58.50;;;;;;4935608;28;20160;-51
2023/04/06 08:45:06;;;;;;;8.93;6.50;;;19.80;63.70;;;;;;4968748;28;20525;-47
2023/04/06 08:47:33;;;;;;;11.38;7.03;;;19.90;56.20;;;;;;4974255;28;20801;-46
2023/04/06 08:50:07;;;;;;;8.10;6.93;;;20.40;56.50;;;;;;4970523;28;20053;-44
2023/04/06 08:52:33;;;;;;;10.20;7.00;;;20.90;53.50;;;;;;4979092;28;20041;-46
2023/04/06 08:55:00;;;;;;;10.32;6.35;;;21.00;54.70;;;;;;4978711;28;20195;-47
2023/04/06 08:57:26;;;;;;;8.32;6.80;;;21.30;52.40;;;;;;4976088;28;20917;-48
2023/04/06 08:59:53;;;;;;;8.93;7.05;;;21.50;51.10;;;;;;4978345;28;20049;-49
2023/04/06 09:02:20;;;;;;;7.85;5.95;;;21.30;51.10;;;;;;4972212;28;20372;-47
2023/04/06 09:04:48;;;;;;;7.60;6.05;;;20.50;51.80;;;;;;4974534;28;20041;-48
2023/04/06 09:07:19;;;;;;;9.70;6.30;;;20.10;52.20;;;;;;4980042;28;20443;-45
2023/04/06 09:09:48;;;;;;;12.18;6.45;;;19.70;51.40;;;;;;4974369;28;20037;-51
2023/04/06 09:12:24;;;;;;;11.23;6.45;;;20.00;51.80;;;;;;4961205;28;20053;-45
2023/04/06 09:15:02;;;;;;;10.98;6.45;;;22.70;53.10;;;;;;4977813;28;20891;-45
2023/04/06 09:17:36;;;;;;;8.82;6.47;;;20.40;49.70;;;;;;4981922;28;20423;-46
2023/04/06 09:20:03;;;;;;;10.05;6.80;;;20.90;49.50;;;;;;4979252;28;20118;-52
2023/04/06 09:22:37;;;;;;;7.75;6.43;;;21.40;48.70;;;;;;4979087;28;20085;-44
2023/04/06 09:25:03;;;;;;;8.50;6.32;;;21.90;47.20;;;;;;5003423;28;20080;-44
2023/04/06 09:27:35;;;;;;;8.43;6.30;;;22.00;46.70;;;;;;4984894;28;20606;-44
2023/04/06 09:30:15;;;;;;;8.60;6.75;;;22.00;46.60;;;;;;4984870;28;20048;-47
2023/04/06 09:32:59;;;;;;;9.05;6.28;;;22.20;45.00;;;;;;4995186;28;20045;-44
2023/04/06 09:35:40;;;;;;;9.32;7.10;;;22.10;47.10;;;;;;4992843;28;20049;-44
2023/04/06 09:38:11;;;;;;;8.52;6.40;;;22.00;47.00;;;;;;4980790;28;20092;-45
2023/04/06 09:40:48;;;;;;;8.00;6.47;;;21.50;45.80;;;;;;4941179;28;20140;-56
2023/04/06 09:43:24;;;;;;;10.38;6.22;;;21.10;45.60;;;;;;4959928;28;20048;-49
2023/04/06 09:45:50;;;;;;;7.90;6.55;;;21.00;45.60;;;;;;4963649;28;20574;-53
2023/04/06 09:48:18;;;;;;;8.88;6.95;;;21.20;45.80;;;;;;4962344;28;20877;-44
2023/04/06 09:50:44;;;;;;;8.98;6.35;;;21.40;46.40;;;;;;4966597;28;20041;-47
2023/04/06 09:53:10;;;;;;;9.13;7.88;;;21.10;46.90;;;;;;4964554;28;20264;-53
2023/04/06 09:55:41;;;;;;;10.52;7.10;;;20.50;46.60;;;;;;4957116;28;20052;-44
2023/04/06 09:58:11;;;;;;;7.97;7.00;;;19.70;46.60;;;;;;4964336;28;20850;-43
2023/04/06 10:01:00;;;;;;;10.48;8.10;;;18.70;46.90;;;;;;4960486;28;20335;-42
2023/04/06 10:03:46;;;;;;;9.80;8.27;;;18.00;47.80;;;;;;4962440;28;20045;-44
2023/04/06 10:06:14;;;;;;;9.27;7.75;;;17.60;52.00;;;;;;4955179;28;22400;-46
2023/04/06 10:08:42;;;;;;;14.00;8.38;;;17.10;49.20;;;;;;4978756;28;20131;-53
2023/04/06 10:11:10;;;;;;;10.73;8.30;;;16.70;49.00;;;;;;4962824;28;20130;-44
2023/04/06 10:13:51;;;;;;;13.57;9.27;;;16.40;50.10;;;;;;4963091;28;20901;-45
2023/04/06 10:16:24;;;;;;;14.13;9.57;;;16.00;54.60;;;;;;4973835;28;20057;-47
2023/04/06 10:19:13;;;;;;;11.32;8.38;;;16.10;50.60;;;;;;4974945;28;20124;-45
2023/04/06 10:21:44;;;;;;;11.90;8.48;;;15.90;51.50;;;;;;4970490;28;20053;-44
2023/04/06 10:24:10;;;;;;;11.45;8.52;;;;;;;;;;4963490;28;20041;-46
2023/04/06 10:26:36;;;;;;;13.48;9.98;;;15.80;51.60;;;;;;4961892;28;20441;-48
2023/04/06 10:29:05;;;;;;;12.23;9.07;;;15.70;51.80;;;;;;4976474;28;20025;-45
2023/04/06 10:31:32;;;;;;;17.05;10.20;;;15.80;52.10;;;;;;4948933;28;20073;-44
2023/04/06 10:34:02;;;;;;;14.48;10.18;;;15.70;51.70;;;;;;4966436;28;20047;-49
2023/04/06 10:36:33;;;;;;;14.20;9.75;;;15.90;51.60;;;;;;4959529;28;20423;-52
2023/04/06 10:39:02;;;;;;;15.23;10.80;;;16.20;51.40;;;;;;4959782;28;20525;-44
2023/04/06 10:41:42;;;;;;;15.20;10.73;;;16.40;51.10;;;;;;4938904;28;20901;-44
2023/04/06 10:44:16;;;;;;;15.32;10.63;;;16.60;50.90;;;;;;4978104;28;20758;-47
2023/04/06 10:46:55;;;;;;;14.13;11.63;;;16.70;50.50;;;;;;4954833;28;20125;-44
2023/04/06 10:49:27;;;;;;;17.42;12.00;;;16.80;50.40;;;;;;4971681;28;20580;-43
2023/04/06 10:51:55;;;;;;;16.48;12.35;;;16.70;49.40;;;;;;4958098;28;20098;-45
2023/04/06 10:54:23;;;;;;;14.65;11.10;;;16.60;49.50;;;;;;4984525;28;20781;-56
2023/04/06 10:56:49;;;;;;;16.73;11.18;;;16.50;49.50;;;;;;4995301;28;20061;-47
2023/04/06 10:59:22;;;;;;;13.27;10.52;;;16.50;50.40;;;;;;5000204;28;20468;-48
2023/04/06 11:01:48;;;;;;;18.38;12.55;;;16.40;50.00;;;;;;4979992;28;20041;-48
2023/04/06 11:04:18;;;;;;;20.00;12.80;;;16.50;50.40;;;;;;4978499;28;20041;-50
2023/04/06 11:06:48;;;;;;;19.08;12.57;;;16.40;50.10;;;;;;4969036;28;20136;-52
2023/04/06 11:09:27;;;;;;;16.83;12.18;;;16.50;51.20;;;;;;5000107;28;20491;-52
2023/04/06 11:11:55;;;;;;;17.92;12.70;;;16.60;50.80;;;;;;4958440;28;20081;-48
2023/04/06 11:14:20;;;;;;;14.70;12.02;;;16.50;58.70;;;;;;4965728;28;20982;-50
2023/04/06 11:16:50;;;;;;;16.52;12.35;;;16.60;50.70;;;;;;4975018;28;20087;-44
2023/04/06 11:19:17;;;;;;;17.20;13.20;;;16.70;50.80;;;;;;4959884;28;20680;-43
2023/04/06 11:21:48;;;;;;;16.35;13.27;;;16.80;50.40;;;;;;4952264;28;20102;-49
2023/04/06 11:24:20;;;;;;;17.88;13.18;;;17.00;50.80;;;;;;4962282;28;20928;-50
2023/04/06 11:26:57;;;;;;;16.88;13.20;;;17.30;56.60;;;;;;4948188;28;21948;-47
2023/04/06 11:29:25;;;;;;;19.67;14.60;;;17.40;51.70;;;;;;5009784;28;20530;-47
2023/04/06 11:32:05;;;;;;;19.15;14.60;;;17.50;51.10;;;;;;5008985;28;20037;-46
2023/04/06 11:34:35;;;;;;;19.95;14.70;;;17.50;51.10;;;;;;4984998;28;20461;-47
2023/04/06 11:37:05;;;;;;;19.13;13.57;;;17.60;52.10;;;;;;5009651;28;20052;-44
2023/04/06 11:39:38;;;;;;;20.45;15.45;;;17.60;50.60;;;;;;5011934;28;20044;-48
2023/04/06 11:42:04;;;;;;;18.63;14.70;;;17.60;50.90;;;;;;5003133;28;20037;-48
2023/04/06 11:44:49;;;;;;;21.10;15.88;;;17.40;49.80;;;;;;5003028;28;20088;-46
2023/04/06 11:47:15;;;;;;;21.42;15.88;;;17.30;49.90;;;;;;5017783;28;20041;-45
2023/04/06 11:49:44;;;;;;;17.98;14.98;;;17.20;50.50;;;;;;5007844;28;20037;-43
2023/04/06 11:52:16;;;;;;;17.77;14.05;;;17.10;50.90;;;;;;5006603;28;20042;-45
2023/04/06 11:54:42;;;;;;;21.50;15.73;;;17.00;51.30;;;;;;5015172;28;20602;-43
2023/04/06 11:57:09;;;;;;;19.55;16.23;;;16.80;50.80;;;;;;5011810;28;20041;-43
2023/04/06 11:59:36;;;;;;;18.83;15.77;;;16.80;50.60;;;;;;5017973;28;20057;-43
2023/04/06 12:02:02;;;;;;;20.10;15.32;;;16.70;50.20;;;;;;5019075;28;20131;-44
2023/04/06 12:04:28;;;;;;;21.38;16.15;;;16.60;50.40;;;;;;5011308;28;20626;-44
2023/04/06 12:06:54;;;;;;;20.83;16.67;;;16.60;50.70;;;;;;5005250;28;20098;-45
2023/04/06 12:09:20;;;;;;;19.90;16.13;;;16.50;51.10;;;;;;5014628;28;20095;-44
2023/04/06 12:11:46;;;;;;;18.77;15.35;;;16.40;51.10;;;;;;4993582;28;20502;-45
2023/04/06 12:14:13;;;;;;;20.45;15.85;;;16.40;51.80;;;;;;5007182;28;20140;-48
2023/04/06 12:16:39;;;;;;;22.42;17.38;;;16.40;52.20;;;;;;5001473;28;20945;-47
2023/04/06 12:19:05;;;;;;;18.92;15.88;;;16.30;51.70;;;;;;5015968;28;20395;-45
2023/04/06 12:21:32;;;;;;;18.42;16.00;;;16.20;50.90;;;;;;5018209;28;20049;-48
2023/04/06 12:23:59;;;;;;;20.17;16.08;;;16.10;51.00;;;;;;5018599;28;20094;-44
2023/04/06 12:26:26;;;;;;;21.17;16.08;;;15.90;50.50;;;;;;5019394;28;20056;-45
2023/04/06 12:28:52;;;;;;;21.40;15.48;;;15.80;50.70;;;;;;5019354;28;20056;-47
2023/04/06 12:31:19;;;;;;;19.15;15.65;;;15.70;50.50;;;;;;5018456;28;20399;-47
2023/04/06 12:33:51;;;;;;;21.55;15.75;;;15.50;50.90;;;;;;5018597;28;20045;-45
2023/04/06 12:36:18;;;;;;;;;;;15.40;51.60;;;;;;5017923;28;20757;-42
2023/04/06 12:38:48;;;;;;;19.25;15.82;;;15.40;53.80;;;;;;5018550;28;19917;-49
2023/04/06 12:41:14;;;;;;;23.08;17.00;;;15.40;51.90;;;;;;5018468;28;20039;-49
2023/04/06 12:43:43;;;;;;;20.13;16.75;;;15.30;51.80;;;;;;5015695;28;20139;-48
2023/04/06 12:46:09;;;;;;;19.63;16.83;;;15.20;52.00;;;;;;5018501;28;20117;-50